Time;durP1;ratioP1;P1;durP2;ratioP2;P2;SDS_P1;SDS_P2;PMS_P1;PMS_P2;Temp;Humidity;BMP_temperature;BMP_pressure;BME280_temperature;BME280_humidity;BME280_pressure;Samples;Min_cycle;Max_cycle;Signal;HPM_P1;HPM_P2
2022/04/13 04:00:46;;;;;;;11.43;8.33;;;7.20;96.30;;;;;;5820564;23;20587;-76
2022/04/13 04:03:12;;;;;;;19.57;10.60;;;7.10;96.30;;;;;;4993480;28;20516;-76
2022/04/13 04:05:37;;;;;;;11.70;7.43;;;7.00;96.30;;;;;;4992202;28;20630;-76
2022/04/13 04:08:04;;;;;;;11.47;6.90;;;7.00;96.30;;;;;;4991922;28;20174;-76
2022/04/13 04:10:29;;;;;;;14.83;7.70;;;7.00;96.30;;;;;;4992253;28;20325;-77
2022/04/13 04:12:55;;;;;;;13.50;7.17;;;7.00;96.30;;;;;;4993570;28;20871;-77
2022/04/13 04:15:21;;;;;;;15.93;8.90;;;7.00;96.30;;;;;;4993945;28;20562;-76
2022/04/13 04:17:46;;;;;;;16.83;9.30;;;7.00;96.30;;;;;;4992123;28;20180;-76
2022/04/13 04:20:12;;;;;;;13.87;8.50;;;7.00;96.30;;;;;;4992236;28;20173;-77
2022/04/13 04:40:37;;;;;;;13.80;8.77;;;7.00;96.30;;;;;;4972511;28;20988;-75
2022/04/13 04:43:03;;;;;;;18.17;8.23;;;7.10;96.30;;;;;;4973757;28;20421;-76
2022/04/13 04:45:28;;;;;;;17.87;8.40;;;7.00;96.30;;;;;;4973747;28;20576;-76
2022/04/13 04:47:56;;;;;;;10.57;7.63;;;7.10;96.30;;;;;;4972254;28;20174;-77
2022/04/13 04:50:22;;;;;;;14.83;9.57;;;7.10;96.30;;;;;;4965657;28;20241;-74
2022/04/13 04:52:49;;;;;;;15.07;9.90;;;7.20;96.30;;;;;;4981282;28;20413;-75
2022/04/13 04:55:16;;;;;;;16.20;9.50;;;7.30;96.30;;;;;;4967480;28;20446;-76
2022/04/13 04:57:42;;;;;;;13.90;8.97;;;7.50;96.30;;;;;;4954239;29;20469;-76
2022/04/13 05:00:10;;;;;;;8.97;5.63;;;7.50;96.30;;;;;;4974439;28;20424;-76
2022/04/13 05:02:37;;;;;;;16.70;10.00;;;7.50;96.30;;;;;;4991444;28;20417;-75
2022/04/13 05:05:03;;;;;;;15.17;8.23;;;7.60;96.30;;;;;;4991554;28;20408;-76
2022/04/13 05:07:29;;;;;;;15.37;9.40;;;7.70;96.30;;;;;;4992563;28;20512;-75
2022/04/13 05:09:54;;;;;;;14.20;8.77;;;7.70;96.30;;;;;;4992806;28;20651;-75
2022/04/13 05:12:20;;;;;;;19.40;10.30;;;7.80;96.30;;;;;;4968444;28;20295;-77
2022/04/13 05:14:45;;;;;;;16.73;10.40;;;7.90;96.30;;;;;;4954055;28;20175;-76
2022/04/13 05:17:11;;;;;;;14.67;8.13;;;8.00;96.30;;;;;;4954033;28;20665;-76
2022/04/13 05:19:36;;;;;;;17.73;10.77;;;8.00;96.20;;;;;;4953846;28;20179;-77
2022/04/13 05:22:02;;;;;;;13.00;8.03;;;8.10;95.90;;;;;;4968738;28;20707;-77
2022/04/13 05:24:27;;;;;;;16.93;10.80;;;8.30;95.10;;;;;;4992929;28;20178;-77
2022/04/13 05:26:53;;;;;;;14.37;8.67;;;8.70;94.40;;;;;;4988101;28;20261;-76
2022/04/13 05:29:18;;;;;;;14.60;8.93;;;9.00;93.00;;;;;;4975490;28;20179;-76
2022/04/13 05:31:44;;;;;;;15.80;8.77;;;9.30;91.40;;;;;;4969055;28;20221;-76
2022/04/13 05:34:09;;;;;;;16.90;11.23;;;9.60;90.40;;;;;;4973449;28;20261;-75
2022/04/13 05:36:35;;;;;;;15.17;8.30;;;9.80;90.00;;;;;;4973809;28;20181;-76
2022/04/13 05:39:01;;;;;;;16.33;8.90;;;10.10;88.90;;;;;;4969273;28;20233;-76
2022/04/13 05:41:27;;;;;;;13.40;6.50;;;10.20;88.40;;;;;;4971868;28;20210;-76
2022/04/13 05:43:52;;;;;;;14.87;9.10;;;10.50;87.50;;;;;;4972290;28;20631;-76
2022/04/13 05:46:18;;;;;;;18.43;9.80;;;10.50;87.20;;;;;;4974253;28;20186;-76
2022/04/13 05:48:43;;;;;;;13.50;9.10;;;10.70;86.80;;;;;;4973960;28;20574;-75
2022/04/13 05:51:09;;;;;;;15.30;9.43;;;10.50;87.10;;;;;;4982649;28;20335;-76
2022/04/13 05:53:35;;;;;;;11.43;8.27;;;10.70;87.30;;;;;;4977873;28;20217;-77
2022/04/13 05:56:01;;;;;;;15.03;8.70;;;11.00;86.20;;;;;;4978527;28;20185;-75
2022/04/13 05:58:27;;;;;;;11.70;8.50;;;11.10;86.00;;;;;;4993540;28;20805;-75
2022/04/13 06:00:53;;;;;;;15.77;9.60;;;11.20;86.00;;;;;;4993766;28;20209;-76
2022/04/13 06:03:19;;;;;;;11.47;9.10;;;11.30;85.80;;;;;;4993771;28;20432;-77
2022/04/13 06:05:45;;;;;;;13.93;9.40;;;11.50;85.40;;;;;;4994106;28;20425;-76
2022/04/13 06:08:12;;;;;;;19.60;8.80;;;11.80;83.80;;;;;;4997338;28;20529;-77
2022/04/13 06:10:38;;;;;;;17.03;9.67;;;11.80;84.60;;;;;;4997773;28;20469;-76
2022/04/13 06:13:03;;;;;;;14.20;8.70;;;11.80;84.50;;;;;;5000951;28;20441;-79
2022/04/13 06:15:29;;;;;;;14.77;9.57;;;12.10;84.10;;;;;;5001290;28;20226;-79
2022/04/13 06:17:55;;;;;;;11.90;8.93;;;12.00;84.50;;;;;;5001190;28;20174;-77
2022/04/13 06:20:20;;;;;;;11.30;8.17;;;12.40;83.10;;;;;;4994624;28;20194;-75
2022/04/13 06:22:46;;;;;;;16.50;8.40;;;12.50;81.90;;;;;;4978865;28;20188;-75
2022/04/13 06:25:12;;;;;;;17.13;8.80;;;12.60;82.50;;;;;;4995740;28;20529;-75
2022/04/13 06:27:40;;;;;;;12.47;8.50;;;12.60;82.20;;;;;;4989289;28;20182;-75
2022/04/13 06:30:07;;;;;;;17.23;8.73;;;13.10;82.30;;;;;;4981527;28;20418;-76
2022/04/13 06:32:36;;;;;;;14.87;9.00;;;13.60;80.50;;;;;;4976128;28;20933;-77
2022/04/13 06:35:04;;;;;;;14.20;8.13;;;14.00;80.00;;;;;;4976160;28;20448;-76
2022/04/13 06:37:29;;;;;;;11.50;8.10;;;14.20;79.10;;;;;;4975847;28;20422;-75
2022/04/13 06:39:55;;;;;;;10.90;8.17;;;14.40;77.60;;;;;;4975766;28;20507;-75
2022/04/13 06:42:22;;;;;;;14.00;7.90;;;14.30;77.90;;;;;;4975764;28;20705;-75
2022/04/13 06:44:49;;;;;;;12.03;8.67;;;14.10;77.50;;;;;;4975614;28;20684;-75
2022/04/13 06:47:14;;;;;;;10.03;7.53;;;14.30;77.60;;;;;;4975814;28;20424;-76
2022/04/13 06:49:40;;;;;;;13.80;8.30;;;14.30;78.30;;;;;;4975612;28;20939;-75
2022/04/13 06:52:06;;;;;;;15.37;9.80;;;14.40;78.00;;;;;;4975591;28;20213;-75
2022/04/13 06:54:31;;;;;;;12.60;9.30;;;14.50;77.90;;;;;;4975575;28;20245;-76
2022/04/13 06:56:56;;;;;;;10.63;7.67;;;14.80;77.60;;;;;;4975423;28;20179;-77
2022/04/13 06:59:22;;;;;;;17.43;11.30;;;15.00;76.20;;;;;;4975265;28;20273;-75
2022/04/13 07:01:47;;;;;;;11.90;8.73;;;15.30;76.50;;;;;;4975407;28;20206;-76
2022/04/13 07:04:13;;;;;;;18.37;10.93;;;14.60;77.90;;;;;;4975531;28;20178;-75
2022/04/13 07:06:38;;;;;;;20.80;10.80;;;14.40;78.00;;;;;;4975465;28;20181;-75
2022/04/13 07:09:04;;;;;;;13.30;8.90;;;14.10;79.20;;;;;;4975074;28;20182;-76
2022/04/13 07:11:30;;;;;;;11.83;8.47;;;14.30;79.30;;;;;;4974987;28;20617;-75
2022/04/13 07:13:56;;;;;;;13.77;9.50;;;14.60;78.10;;;;;;4975132;28;20178;-77
2022/04/13 07:16:21;;;;;;;18.33;10.33;;;14.50;78.70;;;;;;4975205;28;20241;-75
2022/04/13 07:18:46;;;;;;;11.77;8.47;;;15.00;78.70;;;;;;4974039;28;20456;-75
2022/04/13 07:21:12;;;;;;;10.23;7.70;;;14.70;77.90;;;;;;4975259;28;20197;-75
2022/04/13 07:23:37;;;;;;;14.33;9.10;;;15.00;77.60;;;;;;4955947;28;20674;-76
2022/04/13 07:26:03;;;;;;;14.10;8.70;;;15.20;77.50;;;;;;4955802;28;20183;-75
2022/04/13 07:28:28;;;;;;;14.80;10.00;;;15.70;76.00;;;;;;4955408;28;20183;-75
2022/04/13 07:30:54;;;;;;;15.70;8.80;;;16.30;75.10;;;;;;4969174;28;20197;-75
2022/04/13 07:33:19;;;;;;;15.23;9.10;;;16.20;76.40;;;;;;4955359;28;20714;-75
2022/04/13 07:35:45;;;;;;;17.67;11.07;;;17.40;73.80;;;;;;4955453;28;20182;-75
2022/04/13 07:38:10;;;;;;;9.73;7.07;;;18.20;71.70;;;;;;4955119;28;20639;-75
2022/04/13 07:40:36;;;;;;;11.83;8.20;;;16.80;72.20;;;;;;4955460;28;20210;-75
2022/04/13 07:43:01;;;;;;;13.20;8.33;;;17.50;73.10;;;;;;4955532;28;20282;-75
2022/04/13 07:45:27;;;;;;;13.23;8.47;;;18.10;71.00;;;;;;4955263;28;20206;-75
2022/04/13 07:47:52;;;;;;;10.07;7.70;;;17.90;71.80;;;;;;4955202;28;20229;-76
2022/04/13 07:50:18;;;;;;;10.43;7.43;;;17.70;72.10;;;;;;4954997;28;20179;-75
2022/04/13 07:52:43;;;;;;;13.70;9.30;;;18.20;70.30;;;;;;4955255;28;20550;-75
2022/04/13 07:55:10;;;;;;;8.77;7.40;;;18.00;70.90;;;;;;4955194;28;20175;-75
2022/04/13 07:57:40;;;;;;;9.70;7.73;;;18.70;69.80;;;;;;4954810;28;20631;-75
2022/04/13 08:00:09;;;;;;;10.03;8.20;;;18.30;70.30;;;;;;4954945;28;20561;-75
2022/04/13 08:02:35;;;;;;;11.10;8.30;;;19.00;69.10;;;;;;4954940;28;20465;-75
2022/04/13 08:05:01;;;;;;;13.73;7.33;;;18.30;69.90;;;;;;4954904;28;20946;-74
2022/04/13 08:07:26;;;;;;;12.50;7.40;;;18.50;70.80;;;;;;4954664;28;20425;-76
2022/04/13 08:09:52;;;;;;;11.80;6.77;;;19.30;69.50;;;;;;4954984;28;20171;-75
2022/04/13 08:12:18;;;;;;;14.27;7.10;;;18.10;71.40;;;;;;4964801;28;20206;-75
2022/04/13 08:14:47;;;;;;;13.17;7.50;;;18.50;70.20;;;;;;4974104;28;20174;-75
2022/04/13 08:17:13;;;;;;;8.30;6.53;;;18.30;70.20;;;;;;4974004;28;20545;-74
2022/04/13 08:19:39;;;;;;;9.13;6.10;;;18.20;71.70;;;;;;4973825;28;20413;-74
2022/04/13 08:22:04;;;;;;;9.90;5.73;;;18.40;71.00;;;;;;4972517;28;20438;-75
2022/04/13 08:24:30;;;;;;;10.40;6.30;;;18.60;69.80;;;;;;4974013;28;20186;-75
2022/04/13 08:26:58;;;;;;;10.40;6.40;;;18.50;70.70;;;;;;4973784;28;20218;-75
2022/04/13 08:29:24;;;;;;;8.93;6.40;;;18.90;69.30;;;;;;4973135;28;20776;-75
2022/04/13 08:31:50;;;;;;;11.60;5.70;;;19.50;69.70;;;;;;4973682;28;20564;-76
2022/04/13 08:34:15;;;;;;;8.03;5.60;;;20.00;68.10;;;;;;4973858;28;20266;-75
2022/04/13 08:36:41;;;;;;;8.60;5.60;;;19.50;69.40;;;;;;4973669;28;20653;-74
2022/04/13 08:39:13;;;;;;;14.80;5.97;;;19.00;68.70;;;;;;4972114;28;20201;-75
2022/04/13 08:41:51;;;;;;;9.77;6.07;;;18.70;71.10;;;;;;4973533;28;20201;-75
2022/04/13 08:44:34;;;;;;;7.63;6.10;;;19.20;70.10;;;;;;4973592;28;20409;-75
2022/04/13 08:47:06;;;;;;;9.03;6.67;;;19.60;69.40;;;;;;4973625;28;20529;-74
2022/04/13 08:49:34;;;;;;;8.93;4.63;;;20.00;68.50;;;;;;4973274;28;20421;-75
2022/04/13 08:52:03;;;;;;;8.63;5.03;;;20.00;68.50;;;;;;4973424;28;20507;-75
2022/04/13 08:54:31;;;;;;;8.17;5.53;;;19.70;68.10;;;;;;4973428;28;20456;-75
2022/04/13 08:56:57;;;;;;;9.90;5.43;;;19.40;70.10;;;;;;4973621;28;20777;-75
2022/04/13 08:59:48;;;;;;;6.10;4.50;;;19.40;69.70;;;;;;4973268;28;20906;-75
2022/04/13 09:02:47;;;;;;;12.07;5.33;;;19.30;70.40;;;;;;4973267;28;20424;-74
2022/04/13 09:05:16;;;;;;;8.23;5.67;;;19.30;70.40;;;;;;4973312;28;20415;-74
2022/04/13 09:07:42;;;;;;;9.20;4.43;;;19.40;69.70;;;;;;4973010;28;20413;-75
2022/04/13 09:10:16;;;;;;;16.87;5.10;;;19.60;69.20;;;;;;4973230;28;20893;-74
2022/04/13 09:12:43;;;;;;;6.30;4.70;;;19.30;69.70;;;;;;4973159;28;20422;-76
2022/04/13 09:15:11;;;;;;;6.23;4.63;;;18.90;73.00;;;;;;4973176;28;20486;-74
2022/04/13 09:17:37;;;;;;;6.20;5.00;;;19.40;70.00;;;;;;4972862;28;20473;-74
2022/04/13 09:20:02;;;;;;;5.90;4.53;;;19.20;70.40;;;;;;4973194;28;20877;-75
2022/04/13 09:22:31;;;;;;;7.70;5.23;;;19.30;70.40;;;;;;4973245;28;20244;-74
2022/04/13 09:24:57;;;;;;;6.33;5.17;;;19.00;70.40;;;;;;4973123;28;20182;-75
2022/04/13 09:27:24;;;;;;;7.77;5.47;;;18.90;71.20;;;;;;4972964;28;20408;-74
2022/04/13 09:29:50;;;;;;;6.67;4.90;;;18.90;70.70;;;;;;4973007;28;20409;-74
2022/04/13 09:32:17;;;;;;;6.07;4.83;;;19.30;71.60;;;;;;4972930;28;20473;-74
2022/04/13 09:34:42;;;;;;;6.60;5.10;;;19.60;68.70;;;;;;4973011;28;20405;-75
2022/04/13 09:37:08;;;;;;;7.30;5.43;;;19.10;70.60;;;;;;4973185;28;20417;-74
2022/04/13 09:39:34;;;;;;;6.10;5.20;;;19.20;71.60;;;;;;4972864;28;20190;-74
2022/04/13 09:42:04;;;;;;;10.63;4.87;;;19.40;70.10;;;;;;4974716;28;20777;-74
2022/04/13 09:44:30;;;;;;;7.83;4.50;;;19.60;68.50;;;;;;4976841;28;20190;-74
2022/04/13 09:47:10;;;;;;;7.53;4.23;;;19.60;70.30;;;;;;4976877;28;20456;-74
2022/04/13 09:49:46;;;;;;;6.30;4.90;;;19.40;69.50;;;;;;4976525;28;20772;-75
2022/04/13 09:52:11;;;;;;;7.80;5.00;;;19.30;69.50;;;;;;4976557;28;20972;-74
2022/04/13 09:54:46;;;;;;;4.20;3.73;;;19.30;70.70;;;;;;4976610;28;20452;-74
2022/04/13 09:57:22;;;;;;;8.67;4.10;;;19.40;69.50;;;;;;4976533;28;20543;-74
2022/04/13 09:59:54;;;;;;;5.80;3.63;;;19.40;69.00;;;;;;4976321;28;20405;-74
2022/04/13 10:02:40;;;;;;;5.40;4.10;;;19.40;71.40;;;;;;4976782;28;20438;-74
2022/04/13 10:05:09;;;;;;;4.93;3.53;;;19.50;69.80;;;;;;4976318;28;20901;-74
2022/04/13 10:07:35;;;;;;;5.60;4.30;;;19.90;69.20;;;;;;4976280;28;20424;-74
2022/04/13 10:10:02;;;;;;;15.30;3.70;;;20.00;67.30;;;;;;4976390;28;20919;-74
2022/04/13 10:12:27;;;;;;;3.57;3.27;;;19.60;67.10;;;;;;4976327;28;20471;-74
2022/04/13 10:15:05;;;;;;;4.20;3.43;;;19.50;67.50;;;;;;4975331;28;20520;-74
2022/04/13 10:17:33;;;;;;;3.90;3.27;;;19.20;67.40;;;;;;4976088;28;20627;-74
2022/04/13 10:19:58;;;;;;;7.20;3.57;;;19.50;67.20;;;;;;4973653;28;20448;-75
2022/04/13 10:22:24;;;;;;;7.53;3.30;;;19.60;66.80;;;;;;4985247;28;20949;-74
2022/04/13 10:24:49;;;;;;;6.00;3.07;;;19.90;67.70;;;;;;4965409;28;20549;-75
2022/04/13 10:27:17;;;;;;;4.90;3.50;;;20.30;67.10;;;;;;4966961;28;20661;-75
2022/04/13 10:29:48;;;;;;;4.70;3.90;;;20.20;66.80;;;;;;4964271;28;20178;-75
2022/04/13 10:32:13;;;;;;;5.70;3.50;;;20.20;67.50;;;;;;4963151;28;20810;-75
2022/04/13 10:34:41;;;;;;;6.47;3.50;;;20.10;66.60;;;;;;4965013;28;20417;-75
2022/04/13 10:37:08;;;;;;;5.23;3.20;;;19.80;68.10;;;;;;4970467;28;20179;-76
2022/04/13 10:39:34;;;;;;;5.80;3.50;;;20.30;67.70;;;;;;4967392;28;20474;-75
2022/04/13 10:42:02;;;;;;;4.10;2.90;;;20.60;68.30;;;;;;4976528;28;20445;-76
2022/04/13 10:44:34;;;;;;;4.97;3.53;;;21.00;66.10;;;;;;4975652;28;20185;-75
2022/04/13 10:47:05;;;;;;;4.10;3.10;;;21.30;65.50;;;;;;4975673;28;20418;-75
2022/04/13 10:49:58;;;;;;;4.80;2.53;;;21.10;65.00;;;;;;4975250;28;20424;-75
2022/04/13 10:52:28;;;;;;;5.50;3.10;;;20.70;63.70;;;;;;4973891;28;21050;-75
2022/04/13 10:55:01;;;;;;;7.90;3.30;;;20.60;66.90;;;;;;4970253;28;20780;-76
2022/04/13 10:57:35;;;;;;;4.23;2.83;;;20.90;65.00;;;;;;4975500;28;20406;-76
2022/04/13 11:00:03;;;;;;;5.30;3.10;;;20.90;65.10;;;;;;4959702;28;20978;-76
2022/04/13 12:01:13;;;;;;;7.03;2.90;;;20.30;64.90;;;;;;5788355;23;20615;-76
2022/04/13 12:03:41;;;;;;;4.87;2.80;;;20.60;65.60;;;;;;4990142;28;20840;-77
2022/04/13 12:06:09;;;;;;;4.20;2.93;;;20.70;64.50;;;;;;4983694;28;20183;-77
2022/04/13 12:08:55;;;;;;;5.53;3.07;;;20.60;66.40;;;;;;4992163;28;20434;-77
2022/04/13 12:11:24;;;;;;;4.17;2.40;;;20.50;65.70;;;;;;4991054;28;20483;-77
2022/04/13 12:13:59;;;;;;;6.03;3.10;;;20.50;63.90;;;;;;5002714;28;20420;-77
2022/04/13 12:16:26;;;;;;;4.20;3.37;;;20.70;65.80;;;;;;5001950;28;21073;-77
2022/04/13 12:18:54;;;;;;;3.63;2.87;;;20.60;65.10;;;;;;5006407;28;20428;-77
2022/04/13 12:21:22;;;;;;;5.07;3.27;;;20.70;66.70;;;;;;5008422;28;20444;-77
2022/04/13 12:23:51;;;;;;;5.10;2.40;;;20.70;65.10;;;;;;4995843;28;20474;-77
2022/04/13 12:26:28;;;;;;;8.10;3.13;;;20.50;65.30;;;;;;5007304;28;20427;-78
2022/04/13 12:28:53;;;;;;;4.00;3.03;;;20.50;65.20;;;;;;4997419;28;20419;-77
2022/04/13 12:31:19;;;;;;;3.70;3.10;;;20.20;65.70;;;;;;5006566;28;20837;-77
2022/04/13 12:33:44;;;;;;;7.10;2.83;;;20.40;65.30;;;;;;4992247;28;20253;-77
2022/04/13 12:36:11;;;;;;;2.97;2.20;;;20.00;65.80;;;;;;5004135;28;20188;-77
2022/04/13 12:38:39;;;;;;;3.10;2.50;;;19.80;66.30;;;;;;5011163;28;20205;-78
2022/04/13 12:41:15;;;;;;;5.53;2.90;;;19.70;67.40;;;;;;4997699;28;20474;-77
2022/04/13 12:44:03;;;;;;;5.07;3.20;;;19.70;67.00;;;;;;5008691;28;20408;-77
2022/04/13 12:46:30;;;;;;;4.30;3.90;;;19.70;67.60;;;;;;4993761;28;20940;-77
2022/04/13 12:49:01;;;;;;;16.23;14.53;;;19.50;67.60;;;;;;4991782;28;20933;-78
2022/04/13 12:51:35;;;;;;;11.57;3.53;;;19.50;68.50;;;;;;4995635;28;20548;-77
2022/04/13 12:54:10;;;;;;;5.47;3.83;;;19.60;67.40;;;;;;4991580;28;20444;-77
2022/04/13 12:56:45;;;;;;;8.00;3.13;;;19.70;69.40;;;;;;4992954;28;20413;-77
2022/04/13 12:59:18;;;;;;;3.87;2.97;;;20.00;68.50;;;;;;4990896;28;20917;-78
2022/04/13 13:01:46;;;;;;;6.43;2.90;;;20.30;67.80;;;;;;4992563;28;20468;-77
2022/04/13 13:04:14;;;;;;;6.10;3.40;;;20.30;67.60;;;;;;4997814;28;20431;-76
2022/04/13 13:07:15;;;;;;;5.83;3.50;;;20.00;67.50;;;;;;4992307;28;20430;-76
2022/04/13 13:09:50;;;;;;;9.03;3.90;;;20.20;68.80;;;;;;4932581;29;21250;-77
2022/04/13 13:12:17;;;;;;;4.37;3.50;;;19.80;67.80;;;;;;4991640;28;20471;-76
2022/04/13 13:14:52;;;;;;;9.70;3.60;;;19.80;67.70;;;;;;5011663;28;20404;-76
2022/04/13 13:17:31;;;;;;;5.90;3.90;;;19.70;67.20;;;;;;5010512;28;20427;-76
2022/04/13 13:20:08;;;;;;;5.20;3.50;;;19.80;68.10;;;;;;5012339;28;20887;-77
2022/04/13 13:22:38;;;;;;;7.30;3.07;;;19.90;68.10;;;;;;5003118;28;20530;-77
2022/04/13 13:25:06;;;;;;;43.07;4.03;;;20.10;67.60;;;;;;4997368;28;20897;-77
2022/04/13 13:27:39;;;;;;;4.23;3.23;;;20.20;68.10;;;;;;4998447;28;20415;-77
2022/04/13 13:30:13;;;;;;;4.50;3.20;;;20.20;66.70;;;;;;5015973;28;20451;-76
2022/04/13 13:32:50;;;;;;;3.73;3.13;;;20.30;70.50;;;;;;5005178;28;20459;-76
2022/04/13 13:35:17;;;;;;;6.00;5.40;;;20.30;68.50;;;;;;4999064;28;20416;-77
2022/04/13 13:37:44;;;;;;;10.33;3.30;;;20.40;67.50;;;;;;4996114;28;20420;-77
2022/04/13 13:40:36;;;;;;;5.40;4.40;;;20.20;67.10;;;;;;5010131;28;20937;-78
2022/04/13 13:43:09;;;;;;;6.43;4.70;;;19.90;66.90;;;;;;5017058;28;20464;-77
2022/04/13 13:45:35;;;;;;;11.90;5.10;;;19.80;67.40;;;;;;5013680;28;20478;-77
2022/04/13 13:48:03;;;;;;;7.23;4.70;;;19.70;68.10;;;;;;5017332;28;20934;-76
2022/04/13 13:50:30;;;;;;;9.50;4.53;;;19.60;67.70;;;;;;4985501;28;20634;-77
2022/04/13 13:52:55;;;;;;;8.43;4.57;;;19.60;68.70;;;;;;4997372;28;20405;-77
2022/04/13 13:55:26;;;;;;;6.20;3.67;;;19.80;68.80;;;;;;4996504;28;20809;-77
2022/04/13 13:57:52;;;;;;;18.10;5.20;;;19.80;67.50;;;;;;4995736;28;20174;-77
2022/04/13 14:00:18;;;;;;;7.40;4.80;;;19.60;68.30;;;;;;4995589;28;20417;-77
2022/04/13 14:02:52;;;;;;;11.53;5.00;;;19.50;69.50;;;;;;4996096;28;20436;-76
2022/04/13 14:05:24;;;;;;;7.73;5.40;;;19.60;68.70;;;;;;4994632;28;20181;-76
2022/04/13 14:07:52;;;;;;;11.13;5.23;;;19.80;69.50;;;;;;5010027;28;20423;-77
2022/04/13 14:10:17;;;;;;;11.13;6.00;;;20.00;70.00;;;;;;5015314;28;20423;-77
2022/04/13 14:12:43;;;;;;;10.00;6.37;;;19.80;68.80;;;;;;5015197;28;20467;-77
2022/04/13 14:15:11;;;;;;;23.53;6.73;;;19.60;70.00;;;;;;5014105;28;20546;-77
2022/04/13 14:17:38;;;;;;;12.90;6.10;;;19.50;70.40;;;;;;5013898;28;20169;-77
2022/04/13 14:20:03;;;;;;;10.33;6.23;;;20.00;71.20;;;;;;5015183;28;20411;-77
2022/04/13 14:22:29;;;;;;;12.27;6.47;;;20.00;70.30;;;;;;5014021;28;20440;-77
2022/04/13 14:24:56;;;;;;;15.00;6.10;;;19.90;69.70;;;;;;5008301;28;20209;-77
2022/04/13 14:27:21;;;;;;;11.50;6.33;;;20.50;70.40;;;;;;4994797;28;20520;-77
2022/04/13 14:29:47;;;;;;;13.20;6.50;;;20.60;68.70;;;;;;4995354;28;20201;-77
2022/04/13 14:32:13;;;;;;;15.63;7.57;;;20.30;68.80;;;;;;4995736;28;20223;-77
2022/04/13 14:34:39;;;;;;;14.27;6.70;;;19.90;70.80;;;;;;4995536;28;20162;-77
2022/04/13 14:37:04;;;;;;;10.53;6.27;;;19.80;70.40;;;;;;4995353;28;20417;-76
2022/04/13 14:39:30;;;;;;;12.83;7.40;;;19.80;70.50;;;;;;4995384;28;20177;-77
2022/04/13 14:41:55;;;;;;;22.27;7.50;;;19.80;70.30;;;;;;4995144;28;20201;-77
2022/04/13 14:44:21;;;;;;;10.60;6.10;;;19.80;70.00;;;;;;4995217;28;20178;-77
2022/04/13 14:46:46;;;;;;;9.23;6.13;;;19.60;71.40;;;;;;4995198;28;20744;-77
2022/04/13 14:49:12;;;;;;;13.33;7.47;;;19.50;71.20;;;;;;4993428;28;20189;-77
2022/04/13 14:51:37;;;;;;;9.30;6.07;;;19.60;71.60;;;;;;4994969;28;20194;-77
2022/04/13 14:54:03;;;;;;;12.10;7.03;;;19.90;72.10;;;;;;4993744;28;20173;-77
2022/04/13 14:56:28;;;;;;;14.50;7.63;;;19.80;72.40;;;;;;4995236;28;20257;-77
2022/04/13 14:58:54;;;;;;;12.13;6.73;;;19.90;71.50;;;;;;4994650;28;20177;-76
2022/04/13 15:01:19;;;;;;;13.77;6.80;;;20.20;70.70;;;;;;4994925;28;20233;-76
2022/04/13 15:03:46;;;;;;;13.23;6.97;;;20.50;70.60;;;;;;4994981;28;20177;-76
2022/04/13 15:06:12;;;;;;;12.20;7.40;;;20.10;71.40;;;;;;4997007;28;20188;-77
2022/04/13 15:08:42;;;;;;;12.20;6.70;;;19.90;70.80;;;;;;5009923;28;20866;-77
2022/04/13 15:11:09;;;;;;;11.03;6.70;;;20.40;71.00;;;;;;5014077;28;20236;-77
2022/04/13 15:13:34;;;;;;;10.70;6.63;;;20.60;71.50;;;;;;4999965;28;20770;-77
2022/04/13 15:16:00;;;;;;;13.37;7.53;;;20.00;71.50;;;;;;4994864;28;20447;-77
2022/04/13 15:18:25;;;;;;;12.80;7.13;;;19.80;72.60;;;;;;5000610;28;20785;-77
2022/04/13 15:20:51;;;;;;;21.10;9.40;;;19.90;72.00;;;;;;5000427;28;20206;-77
2022/04/13 15:23:16;;;;;;;16.73;8.00;;;20.00;71.10;;;;;;5003565;28;20173;-77
2022/04/13 15:25:42;;;;;;;18.07;8.93;;;20.00;71.20;;;;;;5000376;28;20185;-77
2022/04/13 15:28:07;;;;;;;13.23;8.87;;;19.90;72.50;;;;;;5002121;28;20522;-77
2022/04/13 15:30:38;;;;;;;10.43;7.50;;;19.90;71.10;;;;;;5005141;28;20201;-77
2022/04/13 15:33:03;;;;;;;11.73;7.13;;;20.20;70.90;;;;;;5002300;28;20177;-77
2022/04/13 15:35:29;;;;;;;13.33;8.33;;;20.20;72.60;;;;;;5002565;28;20409;-77
2022/04/13 15:37:54;;;;;;;19.93;8.07;;;19.80;72.70;;;;;;5009058;28;20246;-77
2022/04/13 15:40:20;;;;;;;15.63;8.43;;;19.70;71.80;;;;;;4996452;28;20182;-77
2022/04/13 15:42:45;;;;;;;17.00;9.03;;;19.50;72.60;;;;;;5009206;28;20229;-77
2022/04/13 15:45:11;;;;;;;16.83;8.83;;;19.60;72.50;;;;;;5002320;28;20177;-77
2022/04/13 15:47:37;;;;;;;19.20;9.47;;;19.40;72.50;;;;;;5013615;28;20173;-77
2022/04/13 15:50:04;;;;;;;15.47;9.13;;;19.10;73.60;;;;;;5008644;28;20450;-77
2022/04/13 15:52:34;;;;;;;17.40;9.33;;;19.40;72.90;;;;;;4999435;28;20209;-77
2022/04/13 15:55:00;;;;;;;20.10;13.57;;;19.10;73.90;;;;;;4998871;28;20420;-77
2022/04/13 15:57:25;;;;;;;14.20;8.57;;;18.90;73.90;;;;;;5013326;28;20418;-77
2022/04/13 15:59:50;;;;;;;16.47;9.63;;;18.90;74.60;;;;;;5003383;28;20181;-77
2022/04/13 16:02:16;;;;;;;15.00;9.30;;;18.80;75.20;;;;;;4993495;28;20213;-77
2022/04/13 16:04:42;;;;;;;15.50;7.90;;;18.90;75.10;;;;;;4993731;28;20174;-77
2022/04/13 16:07:08;;;;;;;17.63;11.23;;;18.80;74.90;;;;;;4994393;28;20174;-77
2022/04/13 16:09:34;;;;;;;18.77;10.50;;;18.80;74.70;;;;;;4993240;28;20423;-77
2022/04/13 16:12:00;;;;;;;34.37;19.63;;;18.70;74.20;;;;;;4993507;28;20464;-77
2022/04/13 16:14:26;;;;;;;21.40;12.03;;;18.60;74.80;;;;;;4993757;28;20170;-77
2022/04/13 16:16:53;;;;;;;25.23;10.50;;;18.50;75.10;;;;;;4992447;28;20173;-77
2022/04/13 16:19:19;;;;;;;19.90;11.03;;;18.40;75.40;;;;;;4993252;28;20653;-77
2022/04/13 16:21:45;;;;;;;22.97;12.13;;;18.30;75.60;;;;;;4993493;28;20429;-77
2022/04/13 16:24:10;;;;;;;20.27;10.93;;;18.20;76.80;;;;;;4993343;28;20417;-77
2022/04/13 16:26:36;;;;;;;22.63;11.27;;;18.00;77.00;;;;;;5012778;28;20180;-77
2022/04/13 16:29:01;;;;;;;27.83;11.30;;;18.00;77.20;;;;;;5011718;28;20184;-77
2022/04/13 16:31:27;;;;;;;22.60;11.47;;;18.00;77.40;;;;;;5012780;28;20204;-77
2022/04/13 16:33:53;;;;;;;19.43;10.13;;;17.90;77.70;;;;;;5012803;28;20250;-77
2022/04/13 16:36:18;;;;;;;22.80;10.60;;;17.70;78.50;;;;;;5012386;28;20176;-77
2022/04/13 16:38:45;;;;;;;17.23;10.07;;;17.80;77.60;;;;;;4996253;28;20174;-78
2022/04/13 16:41:12;;;;;;;18.20;10.73;;;17.70;77.90;;;;;;4994960;28;20201;-79
2022/04/13 16:43:38;;;;;;;17.53;9.73;;;17.50;78.80;;;;;;4994457;28;20417;-78
2022/04/13 16:46:03;;;;;;;20.70;10.40;;;17.40;78.10;;;;;;4994676;28;20408;-77
2022/04/13 16:48:29;;;;;;;21.33;9.77;;;17.30;78.20;;;;;;4995552;28;20181;-77
2022/04/13 16:50:54;;;;;;;18.50;10.60;;;17.20;79.00;;;;;;5011700;28;20706;-78
2022/04/13 16:53:20;;;;;;;20.00;10.73;;;17.10;79.80;;;;;;5013590;28;20177;-78
2022/04/13 16:55:46;;;;;;;22.90;11.90;;;17.00;80.00;;;;;;5014629;28;20688;-76
2022/04/13 16:58:12;;;;;;;27.60;11.00;;;16.90;80.10;;;;;;5005541;28;20182;-77
2022/04/13 20:26:29;;;;;;;22.53;11.73;;;11.70;96.30;;;;;;6034274;23;20470;-79
2022/04/13 20:28:55;;;;;;;25.80;13.17;;;11.60;96.30;;;;;;5004002;28;20464;-79
2022/04/13 20:31:20;;;;;;;17.57;9.50;;;11.50;96.30;;;;;;4996002;28;20224;-77
2022/04/13 20:33:46;;;;;;;18.73;9.57;;;11.60;96.30;;;;;;4992730;28;20181;-77
2022/04/13 20:36:11;;;;;;;14.73;9.30;;;11.50;96.30;;;;;;4975398;28;20597;-77
2022/04/13 20:38:37;;;;;;;200.73;112.13;;;11.50;96.30;;;;;;4992169;28;20180;-77
2022/04/13 20:41:04;;;;;;;153.77;98.77;;;11.40;96.30;;;;;;4973243;28;20205;-78
2022/04/13 20:43:30;;;;;;;86.57;54.83;;;11.20;96.30;;;;;;4990971;28;20166;-77
2022/04/13 20:45:55;;;;;;;71.80;49.63;;;11.10;96.30;;;;;;4973353;28;20471;-77
2022/04/13 20:48:21;;;;;;;75.50;47.40;;;10.80;96.30;;;;;;4990916;28;20232;-77
2022/04/13 20:50:47;;;;;;;37.33;27.60;;;10.60;96.30;;;;;;4990920;28;20198;-79
2022/04/13 20:53:13;;;;;;;27.60;17.97;;;10.60;96.30;;;;;;4991575;28;20731;-78
2022/04/13 20:55:39;;;;;;;28.27;20.07;;;10.50;96.30;;;;;;4993085;28;20634;-78
2022/04/13 20:58:05;;;;;;;26.80;16.17;;;10.50;96.30;;;;;;4993185;28;20511;-78
2022/04/13 21:00:32;;;;;;;25.27;17.63;;;10.30;96.30;;;;;;4993195;28;20413;-78
2022/04/13 21:02:58;;;;;;;22.50;14.37;;;10.20;96.30;;;;;;4993283;28;20916;-78
2022/04/13 21:05:24;;;;;;;17.20;10.50;;;10.10;96.30;;;;;;4993081;28;20995;-78
2022/04/13 21:07:49;;;;;;;15.80;10.80;;;10.10;96.30;;;;;;4993138;28;20461;-78
2022/04/13 21:10:15;;;;;;;17.60;9.00;;;10.00;96.30;;;;;;4975858;28;20220;-78
2022/04/13 21:12:41;;;;;;;20.17;9.63;;;10.00;96.30;;;;;;4975795;28;20205;-78
2022/04/13 21:15:07;;;;;;;13.27;9.50;;;9.80;96.30;;;;;;4993326;28;20566;-78
2022/04/13 21:17:32;;;;;;;14.70;9.47;;;9.80;96.30;;;;;;4977227;28;20716;-78
2022/04/13 21:19:58;;;;;;;21.50;11.23;;;9.70;96.30;;;;;;4994210;28;20413;-78
2022/04/13 21:22:24;;;;;;;20.87;13.27;;;9.60;96.30;;;;;;4976592;28;20263;-78
2022/04/13 21:24:49;;;;;;;19.17;10.67;;;9.40;96.30;;;;;;4975070;28;20181;-78